^^
Saratoga-Weather Station Historical Data
Daily Summary for April 15, 2021 Units:  Both    English   Metric
Daily Weekly Monthly Yearly Custom
  High: Low: Average:
Temperature: 36.1 °F /  2.3 °C 26.6 °F /  -3 °C 30 °F /  -1.1 °C
Dew Point: 30 °F /  -1.1 °C 18.9 °F /  -7.3 °C 22.8 °F /  -5.1 °C
Humidity: 79% 62% 74%
Wind Speed: 2mph /  3.2km/h - 0.2mph /  0.3km/h
Wind Gust: 4mph /  6.4km/h - -
Wind- - East
Pressure: 30.5 in /  1032.2 hPa 30.4 in /  1029.1 hPa -
Precipitation: 0 in /  0.0 mm    
Historical Graphs
 
 
Tabular Data for April 15, 2021
Time Temperature Dew Point Pressure Wind Wind Speed Wind Gust Humidity Rainfall Rate (Hourly) solar
00:00 30.7 °F /  -0.7 °C 19.6 °F /  -6.9 °C 30.5in /  1032.2hPa Calm   2mph /  3.2km/h 63% 0in /  0.0mm 0 W/m2
00:05 30.9 °F /  -0.6 °C 20.5 °F /  -6.4 °C 30.5in /  1032.2hPa Calm   1mph /  1.6km/h 65% 0in /  0.0mm 0 W/m2
00:10 30.7 °F /  -0.7 °C 21.4 °F /  -5.9 °C 30.5in /  1032.2hPa Calm     68% 0in /  0.0mm 0 W/m2
00:15 30.6 °F /  -0.8 °C 21.2 °F /  -6 °C 30.5in /  1032.2hPa Calm     68% 0in /  0.0mm 0 W/m2
00:20 30.2 °F /  -1 °C 21.2 °F /  -6 °C 30.5in /  1032.2hPa Calm     69% 0in /  0.0mm 0 W/m2
00:25 29.8 °F /  -1.2 °C 21.2 °F /  -6 °C 30.5in /  1032.2hPa Calm     70% 0in /  0.0mm 0 W/m2
00:30 29.7 °F /  -1.3 °C 21 °F /  -6.1 °C 30.5in /  1032.2hPa Calm     70% 0in /  0.0mm 0 W/m2
00:35 29.3 °F /  -1.5 °C 20.7 °F /  -6.3 °C 30.5in /  1032.2hPa Calm     70% 0in /  0.0mm 0 W/m2
00:40 29.1 °F /  -1.6 °C 20.3 °F /  -6.5 °C 30.5in /  1032.2hPa ENE 2mph /  3.2km/h 3mph /  4.8km/h 69% 0in /  0.0mm 0 W/m2
00:45 30 °F /  -1.1 °C 19 °F /  -7.2 °C 30.5in /  1032.2hPa SSE 0.9mph /  1.4km/h 2mph /  3.2km/h 63% 0in /  0.0mm 0 W/m2
00:50 30.4 °F /  -0.9 °C 19.9 °F /  -6.7 °C 30.5in /  1032.2hPa ENE 0.9mph /  1.4km/h 2mph /  3.2km/h 65% 0in /  0.0mm 0 W/m2
00:55 30.2 °F /  -1 °C 19.9 °F /  -6.7 °C 30.5in /  1032.2hPa ENE 0.9mph /  1.4km/h 2mph /  3.2km/h 65% 0in /  0.0mm 0 W/m2
01:00 30 °F /  -1.1 °C 19.8 °F /  -6.8 °C 30.5in /  1032.2hPa Calm   1mph /  1.6km/h 65% 0in /  0.0mm 0 W/m2
01:05 30 °F /  -1.1 °C 19.4 °F /  -7 °C 30.5in /  1031.8hPa SSE 0.9mph /  1.4km/h 4mph /  6.4km/h 64% 0in /  0.0mm 0 W/m2
01:10 30.4 °F /  -0.9 °C 18.9 °F /  -7.3 °C 30.5in /  1032.2hPa East 0.9mph /  1.4km/h 4mph /  6.4km/h 62% 0in /  0.0mm 0 W/m2
01:15 30.4 °F /  -0.9 °C 19.9 °F /  -6.7 °C 30.5in /  1032.2hPa ENE 2mph /  3.2km/h 2mph /  3.2km/h 65% 0in /  0.0mm 0 W/m2
01:20 30.2 °F /  -1 °C 19.6 °F /  -6.9 °C 30.5in /  1031.8hPa ENE 2mph /  3.2km/h 3mph /  4.8km/h 64% 0in /  0.0mm 0 W/m2
01:25 30 °F /  -1.1 °C 20.1 °F /  -6.6 °C 30.5in /  1032.2hPa ENE 0.9mph /  1.4km/h 2mph /  3.2km/h 66% 0in /  0.0mm 0 W/m2
01:30 29.8 °F /  -1.2 °C 20.7 °F /  -6.3 °C 30.5in /  1032.2hPa Calm   3mph /  4.8km/h 68% 0in /  0.0mm 0 W/m2
01:35 29.7 °F /  -1.3 °C 20.7 °F /  -6.3 °C 30.5in /  1032.2hPa Calm     69% 0in /  0.0mm 0 W/m2
01:40 29.1 °F /  -1.6 °C 20.5 °F /  -6.4 °C 30.5in /  1032.2hPa Calm     70% 0in /  0.0mm 0 W/m2
01:45 28.9 °F /  -1.7 °C 20.7 °F /  -6.3 °C 30.5in /  1031.8hPa Calm     71% 0in /  0.0mm 0 W/m2
01:50 28.8 °F /  -1.8 °C 20.5 °F /  -6.4 °C 30.5in /  1031.8hPa Calm   2mph /  3.2km/h 71% 0in /  0.0mm 0 W/m2
01:55 28.4 °F /  -2 °C 20.5 °F /  -6.4 °C 30.5in /  1031.8hPa Calm   1mph /  1.6km/h 72% 0in /  0.0mm 0 W/m2
02:00 28.2 °F /  -2.1 °C 20.3 °F /  -6.5 °C 30.5in /  1031.8hPa ESE 0.9mph /  1.4km/h 2mph /  3.2km/h 72% 0in /  0.0mm 0 W/m2
02:05 28 °F /  -2.2 °C 20.5 °F /  -6.4 °C 30.5in /  1031.8hPa Calm     73% 0in /  0.0mm 0 W/m2
02:10 28 °F /  -2.2 °C 20.5 °F /  -6.4 °C 30.5in /  1031.8hPa Calm     73% 0in /  0.0mm 0 W/m2
02:16 27.9 °F /  -2.3 °C 20.3 °F /  -6.5 °C 30.5in /  1031.8hPa Calm   1mph /  1.6km/h 73% 0in /  0.0mm 0 W/m2
02:21 27.7 °F /  -2.4 °C 20.5 °F /  -6.4 °C 30.5in /  1031.5hPa Calm   1mph /  1.6km/h 74% 0in /  0.0mm 0 W/m2
02:26 27.3 °F /  -2.6 °C 20.1 °F /  -6.6 °C 30.5in /  1031.5hPa Calm   1mph /  1.6km/h 74% 0in /  0.0mm 0 W/m2
02:31 27.1 °F /  -2.7 °C 20.3 °F /  -6.5 °C 30.5in /  1031.5hPa Calm     75% 0in /  0.0mm 0 W/m2
02:36 27 °F /  -2.8 °C 20.5 °F /  -6.4 °C 30.5in /  1031.5hPa Calm   1mph /  1.6km/h 76% 0in /  0.0mm 0 W/m2
02:41 26.8 °F /  -2.9 °C 20.3 °F /  -6.5 °C 30.5in /  1031.5hPa Calm     76% 0in /  0.0mm 0 W/m2
02:46 26.8 °F /  -2.9 °C 20.3 °F /  -6.5 °C 30.5in /  1031.8hPa Calm     76% 0in /  0.0mm 0 W/m2
02:51 26.8 °F /  -2.9 °C 20.3 °F /  -6.5 °C 30.5in /  1031.8hPa Calm     76% 0in /  0.0mm 0 W/m2
02:56 26.6 °F /  -3 °C 20.1 °F /  -6.6 °C 30.5in /  1031.5hPa Calm     76% 0in /  0.0mm 0 W/m2
03:01 26.8 °F /  -2.9 °C 20.3 °F /  -6.5 °C 30.5in /  1031.2hPa Calm     76% 0in /  0.0mm 0 W/m2
03:06 27 °F /  -2.8 °C 20.5 °F /  -6.4 °C 30.5in /  1031.2hPa Calm     76% 0in /  0.0mm 0 W/m2
03:11 27.1 °F /  -2.7 °C 20.8 °F /  -6.2 °C 30.5in /  1031.2hPa Calm     77% 0in /  0.0mm 0 W/m2
03:16 27.1 °F /  -2.7 °C 20.8 °F /  -6.2 °C 30.5in /  1031.2hPa Calm     77% 0in /  0.0mm 0 W/m2
03:21 27.3 °F /  -2.6 °C 20.5 °F /  -6.4 °C 30.5in /  1031.2hPa Calm     75% 0in /  0.0mm 0 W/m2
03:26 27.5 °F /  -2.5 °C 20.3 °F /  -6.5 °C 30.5in /  1031.2hPa Calm     74% 0in /  0.0mm 0 W/m2
03:31 27.7 °F /  -2.4 °C 20.5 °F /  -6.4 °C 30.5in /  1031.2hPa Calm     74% 0in /  0.0mm 0 W/m2
03:36 27.7 °F /  -2.4 °C 20.8 °F /  -6.2 °C 30.5in /  1031.2hPa Calm     75% 0in /  0.0mm 0 W/m2
03:41 27.7 °F /  -2.4 °C 20.8 °F /  -6.2 °C 30.5in /  1031.2hPa Calm     75% 0in /  0.0mm 0 W/m2
03:46 27.9 °F /  -2.3 °C 21 °F /  -6.1 °C 30.5in /  1031.2hPa Calm     75% 0in /  0.0mm 0 W/m2
03:51 27.9 °F /  -2.3 °C 21 °F /  -6.1 °C 30.4in /  1030.8hPa Calm     75% 0in /  0.0mm 0 W/m2
03:56 27.9 °F /  -2.3 °C 21 °F /  -6.1 °C 30.4in /  1030.8hPa Calm     75% 0in /  0.0mm 0 W/m2
04:01 28 °F /  -2.2 °C 21.4 °F /  -5.9 °C 30.4in /  1030.8hPa Calm     76% 0in /  0.0mm 0 W/m2
04:06 28 °F /  -2.2 °C 21.2 °F /  -6 °C 30.4in /  1030.8hPa Calm     75% 0in /  0.0mm 0 W/m2
04:11 28.2 °F /  -2.1 °C 21.4 °F /  -5.9 °C 30.4in /  1030.5hPa Calm     75% 0in /  0.0mm 0 W/m2
04:16 28.2 °F /  -2.1 °C 21.4 °F /  -5.9 °C 30.4in /  1030.5hPa Calm     75% 0in /  0.0mm 0 W/m2
04:21 28.2 °F /  -2.1 °C 21.4 °F /  -5.9 °C 30.4in /  1030.5hPa Calm     75% 0in /  0.0mm 0 W/m2
04:26 28.2 °F /  -2.1 °C 21.4 °F /  -5.9 °C 30.4in /  1030.5hPa Calm     75% 0in /  0.0mm 0 W/m2
04:31 28.2 °F /  -2.1 °C 21 °F /  -6.1 °C 30.4in /  1030.5hPa Calm     74% 0in /  0.0mm 0 W/m2
04:36 28.2 °F /  -2.1 °C 21 °F /  -6.1 °C 30.4in /  1030.5hPa Calm     74% 0in /  0.0mm 0 W/m2
04:41 28.4 °F /  -2 °C 21.2 °F /  -6 °C 30.4in /  1030.5hPa Calm     74% 0in /  0.0mm 0 W/m2
04:46 28.4 °F /  -2 °C 21.2 °F /  -6 °C 30.4in /  1030.5hPa ESE 0.9mph /  1.4km/h 1mph /  1.6km/h 74% 0in /  0.0mm 0 W/m2
04:51 28.6 °F /  -1.9 °C 21.4 °F /  -5.9 °C 30.4in /  1030.5hPa Calm     74% 0in /  0.0mm 0 W/m2
04:56 28.6 °F /  -1.9 °C 21.7 °F /  -5.7 °C 30.4in /  1030.5hPa Calm     75% 0in /  0.0mm 0 W/m2
05:01 28.8 °F /  -1.8 °C 21.9 °F /  -5.6 °C 30.4in /  1030.1hPa Calm     75% 0in /  0.0mm 0 W/m2
05:06 28.8 °F /  -1.8 °C 21.9 °F /  -5.6 °C 30.4in /  1030.5hPa Calm     75% 0in /  0.0mm 0 W/m2
05:11 28.8 °F /  -1.8 °C 21.9 °F /  -5.6 °C 30.4in /  1030.1hPa Calm     75% 0in /  0.0mm 0 W/m2
05:16 28.9 °F /  -1.7 °C 21.7 °F /  -5.7 °C 30.4in /  1030.1hPa Calm     74% 0in /  0.0mm 0 W/m2
05:21 28.9 °F /  -1.7 °C 21.7 °F /  -5.7 °C 30.4in /  1030.1hPa Calm     74% 0in /  0.0mm 0 W/m2
05:26 28.9 °F /  -1.7 °C 21.7 °F /  -5.7 °C 30.4in /  1030.5hPa Calm     74% 0in /  0.0mm 0 W/m2
05:31 28.9 °F /  -1.7 °C 21.7 °F /  -5.7 °C 30.4in /  1030.5hPa Calm   1mph /  1.6km/h 74% 0in /  0.0mm 0 W/m2
05:36 28.9 °F /  -1.7 °C 22.1 °F /  -5.5 °C 30.4in /  1030.1hPa Calm     75% 0in /  0.0mm 0 W/m2
05:41 28.9 °F /  -1.7 °C 21.7 °F /  -5.7 °C 30.4in /  1030.1hPa Calm     74% 0in /  0.0mm 0 W/m2
05:46 28.9 °F /  -1.7 °C 21.7 °F /  -5.7 °C 30.4in /  1030.1hPa Calm     74% 0in /  0.0mm 0 W/m2
05:51 28.9 °F /  -1.7 °C 21.7 °F /  -5.7 °C 30.4in /  1030.1hPa Calm     74% 0in /  0.0mm 0 W/m2
05:56 28.9 °F /  -1.7 °C 22.1 °F /  -5.5 °C 30.4in /  1030.1hPa Calm     75% 0in /  0.0mm 0 W/m2
06:01 28.9 °F /  -1.7 °C 22.1 °F /  -5.5 °C 30.4in /  1030.1hPa Calm     75% 0in /  0.0mm 0 W/m2
06:06 28.9 °F /  -1.7 °C 22.1 °F /  -5.5 °C 30.4in /  1030.1hPa Calm     75% 0in /  0.0mm 0 W/m2
06:12 28.9 °F /  -1.7 °C 21.7 °F /  -5.7 °C 30.4in /  1030.1hPa Calm     74% 0in /  0.0mm 0 W/m2
06:17 28.9 °F /  -1.7 °C 21.7 °F /  -5.7 °C 30.4in /  1029.8hPa Calm     74% 0in /  0.0mm 0 W/m2
06:22 28.9 °F /  -1.7 °C 21.7 °F /  -5.7 °C 30.4in /  1030.1hPa Calm     74% 0in /  0.0mm 0 W/m2
06:27 29.1 °F /  -1.6 °C 21.9 °F /  -5.6 °C 30.4in /  1029.8hPa ESE 0.9mph /  1.4km/h 1mph /  1.6km/h 74% 0in /  0.0mm 0 W/m2
06:32 29.1 °F /  -1.6 °C 22.3 °F /  -5.4 °C 30.4in /  1029.8hPa Calm   2mph /  3.2km/h 75% 0in /  0.0mm 0 W/m2
06:37 29.3 °F /  -1.5 °C 22.3 °F /  -5.4 °C 30.4in /  1029.8hPa Calm     75% 0in /  0.0mm 0 W/m2
06:42 29.5 °F /  -1.4 °C 22.5 °F /  -5.3 °C 30.4in /  1029.8hPa Calm   2mph /  3.2km/h 75% 0in /  0.0mm 0 W/m2
06:47 29.5 °F /  -1.4 °C 22.5 °F /  -5.3 °C 30.4in /  1029.8hPa Calm   1mph /  1.6km/h 75% 0in /  0.0mm 0 W/m2
06:52 29.7 °F /  -1.3 °C 22.5 °F /  -5.3 °C 30.4in /  1030.1hPa Calm     74% 0in /  0.0mm 0 W/m2
06:57 29.7 °F /  -1.3 °C 22.5 °F /  -5.3 °C 30.4in /  1029.8hPa Calm     74% 0in /  0.0mm 0 W/m2
07:02 29.7 °F /  -1.3 °C 22.6 °F /  -5.2 °C 30.4in /  1029.8hPa Calm     75% 0in /  0.0mm 0 W/m2
07:07 29.8 °F /  -1.2 °C 22.8 °F /  -5.1 °C 30.4in /  1029.8hPa Calm   1mph /  1.6km/h 75% 0in /  0.0mm 0 W/m2
07:12 29.8 °F /  -1.2 °C 22.8 °F /  -5.1 °C 30.4in /  1029.8hPa Calm     75% 0in /  0.0mm 0 W/m2
07:17 29.8 °F /  -1.2 °C 22.8 °F /  -5.1 °C 30.4in /  1029.8hPa Calm   1mph /  1.6km/h 75% 0in /  0.0mm 0 W/m2
07:22 29.8 °F /  -1.2 °C 23.2 °F /  -4.9 °C 30.4in /  1029.8hPa Calm     76% 0in /  0.0mm 0 W/m2
07:27 29.8 °F /  -1.2 °C 23.2 °F /  -4.9 °C 30.4in /  1029.5hPa Calm     76% 0in /  0.0mm 0 W/m2
07:32 30 °F /  -1.1 °C 23.4 °F /  -4.8 °C 30.4in /  1029.8hPa Calm     76% 0in /  0.0mm 0 W/m2
07:37 30 °F /  -1.1 °C 23.4 °F /  -4.8 °C 30.4in /  1029.8hPa Calm     76% 0in /  0.0mm 0 W/m2
07:42 30 °F /  -1.1 °C 23 °F /  -5 °C 30.4in /  1029.5hPa Calm     75% 0in /  0.0mm 0 W/m2
07:47 30 °F /  -1.1 °C 23 °F /  -5 °C 30.4in /  1029.5hPa Calm     75% 0in /  0.0mm 0 W/m2
07:52 30.2 °F /  -1 °C 23.2 °F /  -4.9 °C 30.4in /  1029.5hPa Calm     75% 0in /  0.0mm 0 W/m2
07:57 30.4 °F /  -0.9 °C 23.4 °F /  -4.8 °C 30.4in /  1029.5hPa Calm     75% 0in /  0.0mm 0 W/m2
08:02 30.4 °F /  -0.9 °C 23.4 °F /  -4.8 °C 30.4in /  1029.5hPa Calm     75% 0in /  0.0mm 5 W/m2
08:07 30.6 °F /  -0.8 °C 23.5 °F /  -4.7 °C 30.4in /  1029.5hPa Calm     75% 0in /  0.0mm 7 W/m2
08:12 30.6 °F /  -0.8 °C 23.5 °F /  -4.7 °C 30.4in /  1029.5hPa Calm     75% 0in /  0.0mm 9 W/m2
08:17 30.7 °F /  -0.7 °C 23.7 °F /  -4.6 °C 30.4in /  1029.8hPa Calm     75% 0in /  0.0mm 11 W/m2
08:22 30.7 °F /  -0.7 °C 23.7 °F /  -4.6 °C 30.4in /  1029.8hPa Calm     75% 0in /  0.0mm 11 W/m2
08:27 30.7 °F /  -0.7 °C 23.4 °F /  -4.8 °C 30.4in /  1029.5hPa Calm     74% 0in /  0.0mm 12 W/m2
08:32 30.9 °F /  -0.6 °C 23.9 °F /  -4.5 °C 30.4in /  1029.5hPa Calm     75% 0in /  0.0mm 14 W/m2
08:37 30.9 °F /  -0.6 °C 23.9 °F /  -4.5 °C 30.4in /  1029.5hPa Calm     75% 0in /  0.0mm 14 W/m2
08:42 31.1 °F /  -0.5 °C 24.1 °F /  -4.4 °C 30.4in /  1029.5hPa Calm     75% 0in /  0.0mm 18 W/m2
08:47 31.3 °F /  -0.4 °C 24.3 °F /  -4.3 °C 30.4in /  1029.5hPa Calm     75% 0in /  0.0mm 21 W/m2
08:52 31.3 °F /  -0.4 °C 24.3 °F /  -4.3 °C 30.4in /  1029.8hPa Calm     75% 0in /  0.0mm 19 W/m2
08:57 31.5 °F /  -0.3 °C 24.4 °F /  -4.2 °C 30.4in /  1029.8hPa Calm     75% 0in /  0.0mm 21 W/m2
09:02 31.5 °F /  -0.3 °C 24.4 °F /  -4.2 °C 30.4in /  1029.8hPa Calm     75% 0in /  0.0mm 23 W/m2
09:07 31.6 °F /  -0.2 °C 24.6 °F /  -4.1 °C 30.4in /  1029.8hPa Calm     75% 0in /  0.0mm 19 W/m2
09:12 31.8 °F /  -0.1 °C 24.4 °F /  -4.2 °C 30.4in /  1029.8hPa Calm     74% 0in /  0.0mm 19 W/m2
09:17 31.8 °F /  -0.1 °C 24.4 °F /  -4.2 °C 30.4in /  1029.5hPa ESE 0.9mph /  1.4km/h 2mph /  3.2km/h 74% 0in /  0.0mm 23 W/m2
09:22 32.2 °F /  0.1 °C 24.8 °F /  -4 °C 30.4in /  1029.5hPa Calm     74% 0in /  0.0mm 26 W/m2
09:27 32.4 °F /  0.2 °C 25 °F /  -3.9 °C 30.4in /  1029.5hPa ENE 0.9mph /  1.4km/h 2mph /  3.2km/h 74% 0in /  0.0mm 35 W/m2
09:32 32.5 °F /  0.3 °C 25.5 °F /  -3.6 °C 30.4in /  1029.5hPa Calm   1mph /  1.6km/h 75% 0in /  0.0mm 44 W/m2
09:37 32.7 °F /  0.4 °C 26.2 °F /  -3.2 °C 30.4in /  1029.5hPa Calm   4mph /  6.4km/h 77% 0in /  0.0mm 46 W/m2
09:42 33.1 °F /  0.6 °C 27 °F /  -2.8 °C 30.4in /  1029.5hPa Calm   2mph /  3.2km/h 78% 0in /  0.0mm 51 W/m2
09:47 33.3 °F /  0.7 °C 27.1 °F /  -2.7 °C 30.4in /  1029.5hPa East 2mph /  3.2km/h 3mph /  4.8km/h 78% 0in /  0.0mm 44 W/m2
09:52 33.4 °F /  0.8 °C 27.3 °F /  -2.6 °C 30.4in /  1029.1hPa Calm   3mph /  4.8km/h 78% 0in /  0.0mm 49 W/m2
09:57 33.6 °F /  0.9 °C 27.9 °F /  -2.3 °C 30.4in /  1029.1hPa Calm     79% 0in /  0.0mm 65 W/m2
10:02 34 °F /  1.1 °C 27.9 °F /  -2.3 °C 30.4in /  1029.1hPa Calm     78% 0in /  0.0mm 60 W/m2
10:07 34.2 °F /  1.2 °C 28 °F /  -2.2 °C 30.4in /  1029.1hPa East 2mph /  3.2km/h 2mph /  3.2km/h 78% 0in /  0.0mm 76 W/m2
10:12 34.3 °F /  1.3 °C 27.9 °F /  -2.3 °C 30.4in /  1029.1hPa SE 0.9mph /  1.4km/h 2mph /  3.2km/h 77% 0in /  0.0mm 77 W/m2
10:17 34.7 °F /  1.5 °C 28.2 °F /  -2.1 °C 30.4in /  1029.1hPa ESE 2mph /  3.2km/h 2mph /  3.2km/h 77% 0in /  0.0mm 74 W/m2
10:22 34.9 °F /  1.6 °C 28 °F /  -2.2 °C 30.4in /  1029.1hPa Calm   2mph /  3.2km/h 76% 0in /  0.0mm 77 W/m2
10:27 35.1 °F /  1.7 °C 27.9 °F /  -2.3 °C 30.4in /  1029.1hPa Calm   1mph /  1.6km/h 75% 0in /  0.0mm 76 W/m2
10:32 35.2 °F /  1.8 °C 28.4 °F /  -2 °C 30.4in /  1029.1hPa Calm   1mph /  1.6km/h 76% 0in /  0.0mm 72 W/m2
10:37 35.2 °F /  1.8 °C 28.4 °F /  -2 °C 30.4in /  1029.5hPa South 0.9mph /  1.4km/h 2mph /  3.2km/h 76% 0in /  0.0mm 65 W/m2
10:42 35.4 °F /  1.9 °C 28.9 °F /  -1.7 °C 30.4in /  1029.5hPa Calm     77% 0in /  0.0mm 65 W/m2
10:47 35.4 °F /  1.9 °C 29.3 °F /  -1.5 °C 30.4in /  1029.5hPa Calm   1mph /  1.6km/h 78% 0in /  0.0mm 70 W/m2
10:52 35.4 °F /  1.9 °C 29.5 °F /  -1.4 °C 30.4in /  1029.5hPa Calm     79% 0in /  0.0mm 70 W/m2
10:57 35.6 °F /  2 °C 29.7 °F /  -1.3 °C 30.4in /  1029.5hPa Calm     79% 0in /  0.0mm 74 W/m2
11:03 35.8 °F /  2.1 °C 29.8 °F /  -1.2 °C 30.4in /  1029.1hPa Calm     79% 0in /  0.0mm 86 W/m2
11:08 35.8 °F /  2.1 °C 29.7 °F /  -1.3 °C 30.4in /  1029.1hPa ENE 2mph /  3.2km/h 3mph /  4.8km/h 78% 0in /  0.0mm 91 W/m2
11:13 36 °F /  2.2 °C 29.8 °F /  -1.2 °C 30.4in /  1029.1hPa ENE 2mph /  3.2km/h 2mph /  3.2km/h 78% 0in /  0.0mm 95 W/m2
11:18 36.1 °F /  2.3 °C 30 °F /  -1.1 °C 30.4in /  1029.1hPa Calm   1mph /  1.6km/h 78% 0in /  0.0mm 120 W/m2
Juneau County Weather
Compliments of Weather Underground - 4 mb